sensor_id;sensor_type;location;lat;lon;timestamp;P1;durP1;ratioP1;P2;durP2;ratioP2
39442;SDS011;25147;52.142;9.960;2023-09-19T00:02:02;2.05;;;0.98;;
39442;SDS011;25147;52.142;9.960;2023-09-19T00:04:32;2.33;;;1.30;;
39442;SDS011;25147;52.142;9.960;2023-09-19T00:07:03;1.58;;;1.27;;
39442;SDS011;25147;52.142;9.960;2023-09-19T00:09:33;1.95;;;1.10;;
39442;SDS011;25147;52.142;9.960;2023-09-19T00:12:13;1.58;;;1.10;;
39442;SDS011;25147;52.142;9.960;2023-09-19T00:14:41;2.55;;;1.08;;
39442;SDS011;25147;52.142;9.960;2023-09-19T00:17:11;1.45;;;1.00;;
39442;SDS011;25147;52.142;9.960;2023-09-19T00:19:38;3.92;;;1.40;;
39442;SDS011;25147;52.142;9.960;2023-09-19T00:22:08;1.45;;;1.10;;
39442;SDS011;25147;52.142;9.960;2023-09-19T00:24:41;5.03;;;1.88;;
39442;SDS011;25147;52.142;9.960;2023-09-19T00:27:08;1.95;;;1.35;;
39442;SDS011;25147;52.142;9.960;2023-09-19T00:29:38;2.70;;;1.70;;
39442;SDS011;25147;52.142;9.960;2023-09-19T00:32:06;2.65;;;1.50;;
39442;SDS011;25147;52.142;9.960;2023-09-19T00:34:34;3.08;;;1.60;;
39442;SDS011;25147;52.142;9.960;2023-09-19T00:37:01;3.33;;;1.52;;
39442;SDS011;25147;52.142;9.960;2023-09-19T00:39:31;3.53;;;1.60;;
39442;SDS011;25147;52.142;9.960;2023-09-19T00:42:01;2.92;;;1.75;;
39442;SDS011;25147;52.142;9.960;2023-09-19T00:45:08;4.28;;;1.83;;
39442;SDS011;25147;52.142;9.960;2023-09-19T00:47:51;1.92;;;1.67;;
39442;SDS011;25147;52.142;9.960;2023-09-19T00:50:38;5.15;;;2.30;;
39442;SDS011;25147;52.142;9.960;2023-09-19T00:53:09;2.95;;;2.08;;
39442;SDS011;25147;52.142;9.960;2023-09-19T00:55:39;2.00;;;1.63;;
39442;SDS011;25147;52.142;9.960;2023-09-19T00:58:07;2.47;;;2.20;;
39442;SDS011;25147;52.142;9.960;2023-09-19T01:00:43;5.28;;;2.63;;
39442;SDS011;25147;52.142;9.960;2023-09-19T01:03:11;2.88;;;2.38;;
39442;SDS011;25147;52.142;9.960;2023-09-19T01:05:41;4.00;;;2.58;;
39442;SDS011;25147;52.142;9.960;2023-09-19T01:08:11;3.97;;;2.42;;
39442;SDS011;25147;52.142;9.960;2023-09-19T01:10:38;4.07;;;2.40;;
39442;SDS011;25147;52.142;9.960;2023-09-19T01:13:18;3.22;;;2.40;;
39442;SDS011;25147;52.142;9.960;2023-09-19T01:16:03;5.13;;;2.38;;
39442;SDS011;25147;52.142;9.960;2023-09-19T01:18:40;5.35;;;2.50;;
39442;SDS011;25147;52.142;9.960;2023-09-19T01:21:15;3.80;;;2.45;;
39442;SDS011;25147;52.142;9.960;2023-09-19T01:24:10;3.90;;;2.38;;
39442;SDS011;25147;52.142;9.960;2023-09-19T01:27:08;3.92;;;2.40;;
39442;SDS011;25147;52.142;9.960;2023-09-19T01:29:51;2.83;;;2.50;;
39442;SDS011;25147;52.142;9.960;2023-09-19T01:32:24;4.95;;;2.65;;
39442;SDS011;25147;52.142;9.960;2023-09-19T01:34:53;4.07;;;2.80;;
39442;SDS011;25147;52.142;9.960;2023-09-19T01:37:32;6.22;;;2.95;;
39442;SDS011;25147;52.142;9.960;2023-09-19T01:40:00;4.00;;;2.90;;
39442;SDS011;25147;52.142;9.960;2023-09-19T01:42:41;3.60;;;2.75;;
39442;SDS011;25147;52.142;9.960;2023-09-19T01:45:43;4.55;;;2.83;;
39442;SDS011;25147;52.142;9.960;2023-09-19T01:48:29;5.55;;;2.83;;
39442;SDS011;25147;52.142;9.960;2023-09-19T01:51:09;4.63;;;2.83;;
39442;SDS011;25147;52.142;9.960;2023-09-19T01:53:40;6.45;;;2.60;;
39442;SDS011;25147;52.142;9.960;2023-09-19T01:56:48;4.57;;;2.65;;
39442;SDS011;25147;52.142;9.960;2023-09-19T01:59:57;4.40;;;2.90;;
39442;SDS011;25147;52.142;9.960;2023-09-19T02:02:32;4.18;;;2.67;;
39442;SDS011;25147;52.142;9.960;2023-09-19T02:05:13;6.72;;;2.75;;
39442;SDS011;25147;52.142;9.960;2023-09-19T02:07:56;5.72;;;2.55;;
39442;SDS011;25147;52.142;9.960;2023-09-19T02:13:32;7.40;;;3.03;;
39442;SDS011;25147;52.142;9.960;2023-09-19T02:16:12;10.07;;;2.72;;
39442;SDS011;25147;52.142;9.960;2023-09-19T02:18:51;7.32;;;3.03;;
39442;SDS011;25147;52.142;9.960;2023-09-19T02:21:31;7.90;;;2.83;;
39442;SDS011;25147;52.142;9.960;2023-09-19T02:24:02;7.53;;;3.20;;
39442;SDS011;25147;52.142;9.960;2023-09-19T02:26:29;7.75;;;3.35;;
39442;SDS011;25147;52.142;9.960;2023-09-19T02:29:26;6.85;;;3.42;;
39442;SDS011;25147;52.142;9.960;2023-09-19T02:32:20;5.45;;;2.83;;
39442;SDS011;25147;52.142;9.960;2023-09-19T02:35:31;5.30;;;2.88;;
39442;SDS011;25147;52.142;9.960;2023-09-19T02:41:10;6.40;;;3.10;;
39442;SDS011;25147;52.142;9.960;2023-09-19T02:46:52;7.53;;;2.85;;
39442;SDS011;25147;52.142;9.960;2023-09-19T02:49:25;6.88;;;3.03;;
39442;SDS011;25147;52.142;9.960;2023-09-19T02:51:54;5.47;;;2.70;;
39442;SDS011;25147;52.142;9.960;2023-09-19T02:54:35;4.43;;;2.80;;
39442;SDS011;25147;52.142;9.960;2023-09-19T02:57:19;4.75;;;2.50;;
39442;SDS011;25147;52.142;9.960;2023-09-19T02:59:52;4.32;;;2.30;;
39442;SDS011;25147;52.142;9.960;2023-09-19T03:02:36;5.47;;;2.80;;
39442;SDS011;25147;52.142;9.960;2023-09-19T03:05:06;4.45;;;3.15;;
39442;SDS011;25147;52.142;9.960;2023-09-19T03:07:37;5.40;;;2.83;;
39442;SDS011;25147;52.142;9.960;2023-09-19T03:10:10;4.28;;;2.53;;
39442;SDS011;25147;52.142;9.960;2023-09-19T03:12:42;7.10;;;2.95;;
39442;SDS011;25147;52.142;9.960;2023-09-19T03:15:24;3.67;;;2.85;;
39442;SDS011;25147;52.142;9.960;2023-09-19T03:17:59;5.65;;;2.78;;
39442;SDS011;25147;52.142;9.960;2023-09-19T03:20:26;4.22;;;2.90;;
39442;SDS011;25147;52.142;9.960;2023-09-19T03:28:38;6.47;;;3.30;;
39442;SDS011;25147;52.142;9.960;2023-09-19T03:34:42;5.50;;;3.30;;
39442;SDS011;25147;52.142;9.960;2023-09-19T03:38:29;4.75;;;3.28;;
39442;SDS011;25147;52.142;9.960;2023-09-19T03:41:16;7.53;;;4.28;;
39442;SDS011;25147;52.142;9.960;2023-09-19T03:43:58;5.57;;;4.18;;
39442;SDS011;25147;52.142;9.960;2023-09-19T03:46:30;8.65;;;3.95;;
39442;SDS011;25147;52.142;9.960;2023-09-19T03:48:57;8.25;;;4.95;;
39442;SDS011;25147;52.142;9.960;2023-09-19T03:51:25;8.10;;;4.85;;
39442;SDS011;25147;52.142;9.960;2023-09-19T03:57:31;7.57;;;5.00;;
39442;SDS011;25147;52.142;9.960;2023-09-19T04:00:01;10.48;;;5.43;;
39442;SDS011;25147;52.142;9.960;2023-09-19T04:02:57;10.02;;;5.00;;
39442;SDS011;25147;52.142;9.960;2023-09-19T04:05:51;8.40;;;4.95;;
39442;SDS011;25147;52.142;9.960;2023-09-19T04:08:18;7.68;;;4.68;;
39442;SDS011;25147;52.142;9.960;2023-09-19T04:10:49;8.50;;;4.78;;
39442;SDS011;25147;52.142;9.960;2023-09-19T04:17:21;5.30;;;4.45;;
39442;SDS011;25147;52.142;9.960;2023-09-19T04:20:05;8.93;;;5.45;;
39442;SDS011;25147;52.142;9.960;2023-09-19T04:22:59;7.88;;;4.93;;
39442;SDS011;25147;52.142;9.960;2023-09-19T04:25:36;9.45;;;4.90;;
39442;SDS011;25147;52.142;9.960;2023-09-19T04:28:03;10.00;;;4.70;;
39442;SDS011;25147;52.142;9.960;2023-09-19T04:30:39;11.52;;;4.53;;
39442;SDS011;25147;52.142;9.960;2023-09-19T04:37:05;10.02;;;4.07;;
39442;SDS011;25147;52.142;9.960;2023-09-19T04:43:00;9.30;;;4.07;;
39442;SDS011;25147;52.142;9.960;2023-09-19T04:49:17;10.07;;;3.85;;
39442;SDS011;25147;52.142;9.960;2023-09-19T04:52:05;9.35;;;4.32;;
39442;SDS011;25147;52.142;9.960;2023-09-19T04:54:34;7.40;;;4.10;;
39442;SDS011;25147;52.142;9.960;2023-09-19T04:57:03;9.60;;;4.95;;
39442;SDS011;25147;52.142;9.960;2023-09-19T04:59:33;7.90;;;4.55;;
39442;SDS011;25147;52.142;9.960;2023-09-19T05:02:20;13.18;;;4.57;;
39442;SDS011;25147;52.142;9.960;2023-09-19T05:05:05;5.10;;;3.92;;
39442;SDS011;25147;52.142;9.960;2023-09-19T05:07:50;8.85;;;4.63;;
39442;SDS011;25147;52.142;9.960;2023-09-19T05:10:34;9.20;;;4.43;;
39442;SDS011;25147;52.142;9.960;2023-09-19T05:13:03;9.68;;;4.85;;
39442;SDS011;25147;52.142;9.960;2023-09-19T05:15:38;8.82;;;4.43;;
39442;SDS011;25147;52.142;9.960;2023-09-19T05:20:59;10.20;;;4.60;;
39442;SDS011;25147;52.142;9.960;2023-09-19T05:26:34;8.15;;;4.80;;
39442;SDS011;25147;52.142;9.960;2023-09-19T05:29:04;9.65;;;4.50;;
39442;SDS011;25147;52.142;9.960;2023-09-19T05:31:33;11.80;;;4.90;;
39442;SDS011;25147;52.142;9.960;2023-09-19T05:34:09;9.23;;;4.47;;
39442;SDS011;25147;52.142;9.960;2023-09-19T05:40:33;6.65;;;4.72;;
39442;SDS011;25147;52.142;9.960;2023-09-19T05:43:19;7.72;;;4.22;;
39442;SDS011;25147;52.142;9.960;2023-09-19T05:49:37;6.97;;;3.70;;
39442;SDS011;25147;52.142;9.960;2023-09-19T05:52:11;8.52;;;4.63;;
39442;SDS011;25147;52.142;9.960;2023-09-19T05:55:57;7.80;;;4.38;;
39442;SDS011;25147;52.142;9.960;2023-09-19T06:01:30;9.05;;;4.38;;
39442;SDS011;25147;52.142;9.960;2023-09-19T06:04:08;6.10;;;4.00;;
39442;SDS011;25147;52.142;9.960;2023-09-19T06:12:44;7.10;;;2.95;;
39442;SDS011;25147;52.142;9.960;2023-09-19T06:15:20;6.57;;;4.00;;
39442;SDS011;25147;52.142;9.960;2023-09-19T06:18:11;8.23;;;3.80;;
39442;SDS011;25147;52.142;9.960;2023-09-19T06:23:52;10.48;;;3.92;;
39442;SDS011;25147;52.142;9.960;2023-09-19T06:26:19;8.40;;;3.58;;
39442;SDS011;25147;52.142;9.960;2023-09-19T06:28:53;9.10;;;3.85;;
39442;SDS011;25147;52.142;9.960;2023-09-19T06:38:02;9.77;;;3.15;;
39442;SDS011;25147;52.142;9.960;2023-09-19T06:40:34;9.38;;;3.10;;
39442;SDS011;25147;52.142;9.960;2023-09-19T06:43:01;12.45;;;3.30;;
39442;SDS011;25147;52.142;9.960;2023-09-19T06:45:32;9.45;;;3.47;;
39442;SDS011;25147;52.142;9.960;2023-09-19T06:47:59;7.75;;;3.25;;
39442;SDS011;25147;52.142;9.960;2023-09-19T06:50:35;10.25;;;3.60;;
39442;SDS011;25147;52.142;9.960;2023-09-19T06:53:05;7.03;;;3.15;;
39442;SDS011;25147;52.142;9.960;2023-09-19T06:55:38;5.43;;;2.83;;
39442;SDS011;25147;52.142;9.960;2023-09-19T06:58:12;8.80;;;3.50;;
39442;SDS011;25147;52.142;9.960;2023-09-19T07:00:45;12.77;;;3.67;;
39442;SDS011;25147;52.142;9.960;2023-09-19T07:03:13;12.85;;;3.38;;
39442;SDS011;25147;52.142;9.960;2023-09-19T07:05:41;12.07;;;3.05;;
39442;SDS011;25147;52.142;9.960;2023-09-19T07:11:36;12.55;;;3.45;;
39442;SDS011;25147;52.142;9.960;2023-09-19T07:14:07;11.57;;;3.35;;
39442;SDS011;25147;52.142;9.960;2023-09-19T07:16:42;8.95;;;2.92;;
39442;SDS011;25147;52.142;9.960;2023-09-19T07:19:19;8.93;;;3.35;;
39442;SDS011;25147;52.142;9.960;2023-09-19T07:25:26;8.77;;;2.75;;
39442;SDS011;25147;52.142;9.960;2023-09-19T07:28:05;11.20;;;2.78;;
39442;SDS011;25147;52.142;9.960;2023-09-19T07:30:35;9.77;;;2.78;;
39442;SDS011;25147;52.142;9.960;2023-09-19T07:35:56;10.52;;;2.40;;
39442;SDS011;25147;52.142;9.960;2023-09-19T07:38:35;11.00;;;2.95;;
39442;SDS011;25147;52.142;9.960;2023-09-19T07:41:46;7.93;;;2.50;;
39442;SDS011;25147;52.142;9.960;2023-09-19T07:44:53;6.65;;;2.38;;
39442;SDS011;25147;52.142;9.960;2023-09-19T07:47:25;7.05;;;2.85;;
39442;SDS011;25147;52.142;9.960;2023-09-19T08:00:40;8.52;;;2.20;;
39442;SDS011;25147;52.142;9.960;2023-09-19T08:03:10;8.35;;;2.55;;
39442;SDS011;25147;52.142;9.960;2023-09-19T08:05:43;8.30;;;2.47;;
39442;SDS011;25147;52.142;9.960;2023-09-19T08:10:54;8.98;;;2.53;;
39442;SDS011;25147;52.142;9.960;2023-09-19T08:14:03;8.50;;;2.90;;
39442;SDS011;25147;52.142;9.960;2023-09-19T08:16:30;6.75;;;2.33;;
39442;SDS011;25147;52.142;9.960;2023-09-19T08:18:57;8.60;;;2.50;;
39442;SDS011;25147;52.142;9.960;2023-09-19T08:21:35;7.88;;;2.42;;
39442;SDS011;25147;52.142;9.960;2023-09-19T08:24:06;10.07;;;2.58;;
39442;SDS011;25147;52.142;9.960;2023-09-19T08:26:50;10.10;;;2.72;;
39442;SDS011;25147;52.142;9.960;2023-09-19T08:29:23;7.00;;;1.98;;
39442;SDS011;25147;52.142;9.960;2023-09-19T08:31:58;8.98;;;2.65;;
39442;SDS011;25147;52.142;9.960;2023-09-19T08:34:25;7.05;;;2.50;;
39442;SDS011;25147;52.142;9.960;2023-09-19T08:37:36;6.40;;;2.17;;
39442;SDS011;25147;52.142;9.960;2023-09-19T08:40:03;8.02;;;2.00;;
39442;SDS011;25147;52.142;9.960;2023-09-19T08:42:47;8.88;;;2.60;;
39442;SDS011;25147;52.142;9.960;2023-09-19T08:45:18;8.40;;;2.53;;
39442;SDS011;25147;52.142;9.960;2023-09-19T08:51:00;6.13;;;2.33;;
39442;SDS011;25147;52.142;9.960;2023-09-19T08:53:35;7.13;;;2.42;;
39442;SDS011;25147;52.142;9.960;2023-09-19T08:59:07;8.70;;;2.40;;
39442;SDS011;25147;52.142;9.960;2023-09-19T09:01:36;4.25;;;1.95;;
39442;SDS011;25147;52.142;9.960;2023-09-19T09:04:11;6.45;;;2.00;;
39442;SDS011;25147;52.142;9.960;2023-09-19T09:06:45;6.95;;;2.47;;
39442;SDS011;25147;52.142;9.960;2023-09-19T09:09:18;6.25;;;2.70;;
39442;SDS011;25147;52.142;9.960;2023-09-19T09:11:49;4.13;;;1.75;;
39442;SDS011;25147;52.142;9.960;2023-09-19T09:14:52;9.68;;;2.20;;
39442;SDS011;25147;52.142;9.960;2023-09-19T09:17:15;9.50;;;2.55;;
39442;SDS011;25147;52.142;9.960;2023-09-19T09:19:44;5.53;;;1.80;;
39442;SDS011;25147;52.142;9.960;2023-09-19T09:22:21;5.63;;;2.25;;
39442;SDS011;25147;52.142;9.960;2023-09-19T09:24:52;7.00;;;2.00;;
39442;SDS011;25147;52.142;9.960;2023-09-19T09:27:26;6.38;;;2.13;;
39442;SDS011;25147;52.142;9.960;2023-09-19T09:29:53;4.57;;;1.88;;
39442;SDS011;25147;52.142;9.960;2023-09-19T09:32:21;8.55;;;2.80;;
39442;SDS011;25147;52.142;9.960;2023-09-19T09:34:59;7.78;;;2.35;;
39442;SDS011;25147;52.142;9.960;2023-09-19T09:37:40;8.20;;;2.15;;
39442;SDS011;25147;52.142;9.960;2023-09-19T09:40:13;8.02;;;1.90;;
39442;SDS011;25147;52.142;9.960;2023-09-19T09:43:01;9.30;;;2.17;;
39442;SDS011;25147;52.142;9.960;2023-09-19T09:45:33;9.65;;;2.67;;
39442;SDS011;25147;52.142;9.960;2023-09-19T09:48:04;7.75;;;2.40;;
39442;SDS011;25147;52.142;9.960;2023-09-19T09:50:46;7.22;;;2.08;;
39442;SDS011;25147;52.142;9.960;2023-09-19T09:53:21;9.55;;;2.53;;
39442;SDS011;25147;52.142;9.960;2023-09-19T09:55:57;7.50;;;2.30;;
39442;SDS011;25147;52.142;9.960;2023-09-19T09:58:34;8.02;;;2.55;;
39442;SDS011;25147;52.142;9.960;2023-09-19T10:03:53;5.93;;;2.20;;
39442;SDS011;25147;52.142;9.960;2023-09-19T10:06:46;7.38;;;2.08;;
39442;SDS011;25147;52.142;9.960;2023-09-19T10:09:44;5.57;;;2.10;;
39442;SDS011;25147;52.142;9.960;2023-09-19T10:18:58;6.50;;;2.30;;
39442;SDS011;25147;52.142;9.960;2023-09-19T10:21:31;9.13;;;2.47;;
39442;SDS011;25147;52.142;9.960;2023-09-19T10:24:09;7.65;;;2.28;;
39442;SDS011;25147;52.142;9.960;2023-09-19T10:26:59;5.38;;;2.03;;
39442;SDS011;25147;52.142;9.960;2023-09-19T10:29:34;8.00;;;2.42;;
39442;SDS011;25147;52.142;9.960;2023-09-19T10:32:18;5.85;;;2.15;;
39442;SDS011;25147;52.142;9.960;2023-09-19T10:38:23;8.73;;;2.40;;
39442;SDS011;25147;52.142;9.960;2023-09-19T10:41:02;9.52;;;2.53;;
39442;SDS011;25147;52.142;9.960;2023-09-19T10:43:34;6.43;;;2.17;;
39442;SDS011;25147;52.142;9.960;2023-09-19T10:46:06;6.20;;;2.33;;
39442;SDS011;25147;52.142;9.960;2023-09-19T10:48:36;7.72;;;2.35;;
39442;SDS011;25147;52.142;9.960;2023-09-19T10:51:26;5.30;;;2.30;;
39442;SDS011;25147;52.142;9.960;2023-09-19T10:54:10;10.75;;;2.50;;
39442;SDS011;25147;52.142;9.960;2023-09-19T10:56:48;7.60;;;2.35;;
39442;SDS011;25147;52.142;9.960;2023-09-19T10:59:18;9.50;;;2.63;;
39442;SDS011;25147;52.142;9.960;2023-09-19T11:01:52;8.48;;;2.33;;
39442;SDS011;25147;52.142;9.960;2023-09-19T11:04:23;5.22;;;2.28;;
39442;SDS011;25147;52.142;9.960;2023-09-19T11:07:05;7.93;;;2.45;;
39442;SDS011;25147;52.142;9.960;2023-09-19T11:09:45;8.73;;;2.75;;
39442;SDS011;25147;52.142;9.960;2023-09-19T11:12:13;7.78;;;2.65;;
39442;SDS011;25147;52.142;9.960;2023-09-19T11:21:51;9.48;;;2.88;;
39442;SDS011;25147;52.142;9.960;2023-09-19T11:24:47;4.47;;;2.97;;
39442;SDS011;25147;52.142;9.960;2023-09-19T11:27:19;9.18;;;2.80;;
39442;SDS011;25147;52.142;9.960;2023-09-19T11:29:46;8.13;;;2.78;;
39442;SDS011;25147;52.142;9.960;2023-09-19T11:32:15;7.70;;;2.45;;
39442;SDS011;25147;52.142;9.960;2023-09-19T11:34:48;8.27;;;2.80;;
39442;SDS011;25147;52.142;9.960;2023-09-19T11:40:44;7.40;;;2.40;;
39442;SDS011;25147;52.142;9.960;2023-09-19T11:43:31;6.85;;;2.33;;
39442;SDS011;25147;52.142;9.960;2023-09-19T11:46:03;6.85;;;2.20;;
39442;SDS011;25147;52.142;9.960;2023-09-19T11:48:30;4.70;;;2.35;;
39442;SDS011;25147;52.142;9.960;2023-09-19T11:50:58;7.07;;;2.75;;
39442;SDS011;25147;52.142;9.960;2023-09-19T11:53:32;8.00;;;2.53;;
39442;SDS011;25147;52.142;9.960;2023-09-19T11:56:04;8.55;;;2.53;;
39442;SDS011;25147;52.142;9.960;2023-09-19T11:58:44;5.95;;;2.38;;
39442;SDS011;25147;52.142;9.960;2023-09-19T12:01:15;8.43;;;2.50;;
39442;SDS011;25147;52.142;9.960;2023-09-19T12:03:55;6.53;;;2.85;;
39442;SDS011;25147;52.142;9.960;2023-09-19T12:06:27;6.72;;;2.55;;
39442;SDS011;25147;52.142;9.960;2023-09-19T12:08:57;11.25;;;2.67;;
39442;SDS011;25147;52.142;9.960;2023-09-19T12:11:27;3.40;;;2.10;;
39442;SDS011;25147;52.142;9.960;2023-09-19T12:14:00;4.00;;;2.05;;
39442;SDS011;25147;52.142;9.960;2023-09-19T12:16:36;7.00;;;2.50;;
39442;SDS011;25147;52.142;9.960;2023-09-19T12:19:19;6.63;;;2.88;;
39442;SDS011;25147;52.142;9.960;2023-09-19T12:21:53;6.10;;;2.45;;
39442;SDS011;25147;52.142;9.960;2023-09-19T12:24:23;7.10;;;2.45;;
39442;SDS011;25147;52.142;9.960;2023-09-19T12:26:51;10.38;;;3.10;;
39442;SDS011;25147;52.142;9.960;2023-09-19T12:29:20;6.28;;;2.60;;
39442;SDS011;25147;52.142;9.960;2023-09-19T12:31:52;8.27;;;2.80;;
39442;SDS011;25147;52.142;9.960;2023-09-19T12:34:23;8.00;;;2.60;;
39442;SDS011;25147;52.142;9.960;2023-09-19T12:37:05;7.07;;;2.42;;
39442;SDS011;25147;52.142;9.960;2023-09-19T12:39:37;4.90;;;2.38;;
39442;SDS011;25147;52.142;9.960;2023-09-19T12:42:11;6.18;;;2.63;;
39442;SDS011;25147;52.142;9.960;2023-09-19T12:44:42;8.27;;;2.90;;
39442;SDS011;25147;52.142;9.960;2023-09-19T12:47:11;5.85;;;2.67;;
39442;SDS011;25147;52.142;9.960;2023-09-19T12:50:10;7.72;;;2.42;;
39442;SDS011;25147;52.142;9.960;2023-09-19T12:52:45;5.65;;;2.47;;
39442;SDS011;25147;52.142;9.960;2023-09-19T12:55:19;7.95;;;2.40;;
39442;SDS011;25147;52.142;9.960;2023-09-19T13:00:46;6.18;;;3.03;;
39442;SDS011;25147;52.142;9.960;2023-09-19T13:03:17;5.63;;;2.40;;
39442;SDS011;25147;52.142;9.960;2023-09-19T13:14:36;5.18;;;2.70;;
39442;SDS011;25147;52.142;9.960;2023-09-19T13:17:25;6.05;;;2.50;;
39442;SDS011;25147;52.142;9.960;2023-09-19T13:20:24;5.97;;;2.90;;
39442;SDS011;25147;52.142;9.960;2023-09-19T13:23:25;6.13;;;2.53;;
39442;SDS011;25147;52.142;9.960;2023-09-19T13:26:09;5.80;;;2.45;;
39442;SDS011;25147;52.142;9.960;2023-09-19T13:28:44;6.82;;;2.85;;
39442;SDS011;25147;52.142;9.960;2023-09-19T13:31:18;6.15;;;2.75;;
39442;SDS011;25147;52.142;9.960;2023-09-19T13:40:17;8.10;;;2.75;;
39442;SDS011;25147;52.142;9.960;2023-09-19T13:43:12;8.15;;;3.00;;
39442;SDS011;25147;52.142;9.960;2023-09-19T13:45:55;7.30;;;2.80;;
39442;SDS011;25147;52.142;9.960;2023-09-19T13:48:23;7.45;;;2.63;;
39442;SDS011;25147;52.142;9.960;2023-09-19T13:53:36;5.05;;;2.60;;
39442;SDS011;25147;52.142;9.960;2023-09-19T13:56:28;5.97;;;2.75;;
39442;SDS011;25147;52.142;9.960;2023-09-19T13:59:09;8.07;;;2.95;;
39442;SDS011;25147;52.142;9.960;2023-09-19T14:01:36;8.20;;;2.63;;
39442;SDS011;25147;52.142;9.960;2023-09-19T14:04:05;5.82;;;2.65;;
39442;SDS011;25147;52.142;9.960;2023-09-19T14:06:42;8.27;;;2.90;;
39442;SDS011;25147;52.142;9.960;2023-09-19T14:09:15;6.60;;;2.72;;
39442;SDS011;25147;52.142;9.960;2023-09-19T14:11:44;7.38;;;2.80;;
39442;SDS011;25147;52.142;9.960;2023-09-19T14:14:13;3.80;;;2.42;;
39442;SDS011;25147;52.142;9.960;2023-09-19T14:16:40;4.90;;;3.03;;
39442;SDS011;25147;52.142;9.960;2023-09-19T14:19:09;4.82;;;2.70;;
39442;SDS011;25147;52.142;9.960;2023-09-19T14:22:09;6.40;;;2.88;;
39442;SDS011;25147;52.142;9.960;2023-09-19T14:24:40;4.60;;;2.60;;
39442;SDS011;25147;52.142;9.960;2023-09-19T14:27:12;6.55;;;2.70;;
39442;SDS011;25147;52.142;9.960;2023-09-19T14:29:46;6.93;;;2.80;;
39442;SDS011;25147;52.142;9.960;2023-09-19T14:32:48;6.53;;;2.70;;
39442;SDS011;25147;52.142;9.960;2023-09-19T14:35:20;6.10;;;2.80;;
39442;SDS011;25147;52.142;9.960;2023-09-19T14:38:14;5.32;;;2.20;;
39442;SDS011;25147;52.142;9.960;2023-09-19T14:40:45;5.47;;;2.78;;
39442;SDS011;25147;52.142;9.960;2023-09-19T14:43:21;5.53;;;2.58;;
39442;SDS011;25147;52.142;9.960;2023-09-19T14:45:48;5.82;;;2.58;;
39442;SDS011;25147;52.142;9.960;2023-09-19T14:48:15;4.50;;;2.72;;
39442;SDS011;25147;52.142;9.960;2023-09-19T14:50:42;7.57;;;2.35;;
39442;SDS011;25147;52.142;9.960;2023-09-19T14:53:18;4.60;;;2.22;;
39442;SDS011;25147;52.142;9.960;2023-09-19T14:55:48;7.97;;;2.88;;
39442;SDS011;25147;52.142;9.960;2023-09-19T14:58:17;3.55;;;1.90;;
39442;SDS011;25147;52.142;9.960;2023-09-19T15:00:46;5.68;;;2.15;;
39442;SDS011;25147;52.142;9.960;2023-09-19T15:03:13;5.20;;;2.90;;
39442;SDS011;25147;52.142;9.960;2023-09-19T15:05:40;5.38;;;2.22;;
39442;SDS011;25147;52.142;9.960;2023-09-19T15:08:07;3.88;;;2.20;;
39442;SDS011;25147;52.142;9.960;2023-09-19T15:10:35;5.07;;;1.98;;
39442;SDS011;25147;52.142;9.960;2023-09-19T15:13:06;7.05;;;2.40;;
39442;SDS011;25147;52.142;9.960;2023-09-19T15:15:34;3.58;;;2.03;;
39442;SDS011;25147;52.142;9.960;2023-09-19T15:18:01;4.95;;;2.20;;
39442;SDS011;25147;52.142;9.960;2023-09-19T15:20:30;5.07;;;2.33;;
39442;SDS011;25147;52.142;9.960;2023-09-19T15:22:57;3.50;;;2.10;;
39442;SDS011;25147;52.142;9.960;2023-09-19T15:25:25;6.65;;;2.20;;
39442;SDS011;25147;52.142;9.960;2023-09-19T15:27:56;4.55;;;2.03;;
39442;SDS011;25147;52.142;9.960;2023-09-19T15:30:36;5.10;;;2.08;;
39442;SDS011;25147;52.142;9.960;2023-09-19T15:33:09;4.82;;;2.28;;
39442;SDS011;25147;52.142;9.960;2023-09-19T15:35:36;6.78;;;2.22;;
39442;SDS011;25147;52.142;9.960;2023-09-19T15:38:03;2.67;;;1.92;;
39442;SDS011;25147;52.142;9.960;2023-09-19T15:40:30;5.97;;;2.25;;
39442;SDS011;25147;52.142;9.960;2023-09-19T15:43:16;4.78;;;1.80;;
39442;SDS011;25147;52.142;9.960;2023-09-19T15:45:53;4.18;;;2.08;;
39442;SDS011;25147;52.142;9.960;2023-09-19T15:48:47;4.50;;;2.13;;
39442;SDS011;25147;52.142;9.960;2023-09-19T15:51:15;6.20;;;2.22;;
39442;SDS011;25147;52.142;9.960;2023-09-19T15:53:45;4.07;;;2.00;;
39442;SDS011;25147;52.142;9.960;2023-09-19T16:06:42;6.95;;;2.55;;
39442;SDS011;25147;52.142;9.960;2023-09-19T16:09:12;6.18;;;1.88;;
39442;SDS011;25147;52.142;9.960;2023-09-19T16:12:11;4.28;;;1.75;;
39442;SDS011;25147;52.142;9.960;2023-09-19T16:14:55;5.47;;;2.10;;
39442;SDS011;25147;52.142;9.960;2023-09-19T16:21:00;5.25;;;2.13;;
39442;SDS011;25147;52.142;9.960;2023-09-19T16:23:33;5.63;;;1.90;;
39442;SDS011;25147;52.142;9.960;2023-09-19T16:26:02;3.75;;;1.92;;
39442;SDS011;25147;52.142;9.960;2023-09-19T16:28:43;5.25;;;2.15;;
39442;SDS011;25147;52.142;9.960;2023-09-19T16:31:11;5.22;;;2.15;;
39442;SDS011;25147;52.142;9.960;2023-09-19T16:33:44;6.13;;;2.17;;
39442;SDS011;25147;52.142;9.960;2023-09-19T16:36:15;5.72;;;2.20;;
39442;SDS011;25147;52.142;9.960;2023-09-19T16:39:01;5.05;;;2.40;;
39442;SDS011;25147;52.142;9.960;2023-09-19T16:41:33;9.25;;;2.53;;
39442;SDS011;25147;52.142;9.960;2023-09-19T16:44:07;3.75;;;1.98;;
39442;SDS011;25147;52.142;9.960;2023-09-19T16:46:34;5.53;;;2.13;;
39442;SDS011;25147;52.142;9.960;2023-09-19T16:49:04;11.18;;;2.50;;
39442;SDS011;25147;52.142;9.960;2023-09-19T16:51:43;4.43;;;1.80;;
39442;SDS011;25147;52.142;9.960;2023-09-19T16:54:54;5.28;;;2.00;;
39442;SDS011;25147;52.142;9.960;2023-09-19T16:57:24;7.70;;;2.72;;
39442;SDS011;25147;52.142;9.960;2023-09-19T17:01:05;4.43;;;2.10;;
39442;SDS011;25147;52.142;9.960;2023-09-19T17:04:00;6.88;;;2.28;;
39442;SDS011;25147;52.142;9.960;2023-09-19T17:10:07;6.13;;;2.22;;
39442;SDS011;25147;52.142;9.960;2023-09-19T17:12:37;4.50;;;1.88;;
39442;SDS011;25147;52.142;9.960;2023-09-19T17:15:13;6.25;;;2.25;;
39442;SDS011;25147;52.142;9.960;2023-09-19T17:17:44;7.97;;;2.40;;
39442;SDS011;25147;52.142;9.960;2023-09-19T17:20:24;5.40;;;2.08;;
39442;SDS011;25147;52.142;9.960;2023-09-19T17:22:53;4.82;;;2.15;;
39442;SDS011;25147;52.142;9.960;2023-09-19T17:25:32;5.00;;;2.00;;
39442;SDS011;25147;52.142;9.960;2023-09-19T17:28:08;7.57;;;2.10;;
39442;SDS011;25147;52.142;9.960;2023-09-19T17:31:08;5.65;;;2.83;;
39442;SDS011;25147;52.142;9.960;2023-09-19T17:33:31;3.58;;;2.30;;
39442;SDS011;25147;52.142;9.960;2023-09-19T17:36:20;3.70;;;2.20;;
39442;SDS011;25147;52.142;9.960;2023-09-19T17:51:14;5.93;;;2.03;;
39442;SDS011;25147;52.142;9.960;2023-09-19T17:54:29;5.75;;;2.47;;
39442;SDS011;25147;52.142;9.960;2023-09-19T17:57:29;5.60;;;2.60;;
39442;SDS011;25147;52.142;9.960;2023-09-19T18:00:20;4.35;;;2.03;;
39442;SDS011;25147;52.142;9.960;2023-09-19T18:03:02;5.43;;;2.15;;
39442;SDS011;25147;52.142;9.960;2023-09-19T18:05:34;6.47;;;2.42;;
39442;SDS011;25147;52.142;9.960;2023-09-19T18:08:04;6.35;;;2.30;;
39442;SDS011;25147;52.142;9.960;2023-09-19T18:13:50;3.83;;;2.42;;
39442;SDS011;25147;52.142;9.960;2023-09-19T18:16:26;5.40;;;2.47;;
39442;SDS011;25147;52.142;9.960;2023-09-19T18:19:01;6.68;;;2.30;;
39442;SDS011;25147;52.142;9.960;2023-09-19T18:22:02;7.38;;;2.22;;
39442;SDS011;25147;52.142;9.960;2023-09-19T18:24:57;4.18;;;2.13;;
39442;SDS011;25147;52.142;9.960;2023-09-19T18:27:33;3.78;;;2.15;;
39442;SDS011;25147;52.142;9.960;2023-09-19T18:30:12;5.03;;;2.15;;
39442;SDS011;25147;52.142;9.960;2023-09-19T18:32:59;5.18;;;2.20;;
39442;SDS011;25147;52.142;9.960;2023-09-19T18:35:40;3.88;;;2.08;;
39442;SDS011;25147;52.142;9.960;2023-09-19T18:38:18;4.15;;;2.08;;
39442;SDS011;25147;52.142;9.960;2023-09-19T18:41:13;6.40;;;2.38;;